PWSweather.com
Personal Weather Stations
Station Observations
PEISSEN1
PeissenbergDE

PeissenbergDE

Lat: 47.791845, Lon: 11.064121

Elevation: 1929

Station Type: Davis Vantage Pro 2

wetter-peissenberg.de

High Low Average
Temperature 62.8°F17.1°C 54.1°F12.3°C 57.9°F14.4°C
Dew Point 61.0°F16.1°C 51.2°F10.7°C 55.2°F12.9°C
Winds 8.7 mph 14.0 kmh Calm Calm Calm WCalm W
Wind Gusts 11.0 mph17.7 kmh -- 1.0 mph1.6 kmh
Humidity 94% 85% 91%
Pressure 30.25 in1024.4 mb 30.00 in1015.9 mb -
Precipitation 0.39 in9.9 mm - -
Hour Temp Dew Point Humidity Winds Wind Gusts Pressure Precip Precip Rate Daily Precip Total
12:00 AM 62.8°F17.1°C 61.0°F16.1°C 94% 1.0 mph N1.6 kmh N 2.0 mph3.2 kmh 30.00 in1015.9 mb 0.00 in0.0 mm 0.00 in0.0 mm 0.36 in9.1 mm
12:10 AM 62.8°F17.1°C 61.0°F16.1°C 94% 3.6 mph N5.8 kmh N 6.0 mph9.7 kmh 30.00 in1015.9 mb 0.00 in0.0 mm 0.00 in0.0 mm 0.37 in9.4 mm
12:20 AM 61.9°F16.6°C 59.8°F15.4°C 93% 8.7 mph WNW14.0 kmh WNW 11.0 mph17.7 kmh 30.01 in1016.3 mb 0.01 in0.3 mm 0.05 in1.3 mm 0.39 in9.9 mm
02:00 AM 60.3°F15.7°C 57.9°F14.4°C 92% Calm Calm -- 30.02 in1016.6 mb 0.00 in0.0 mm 0.00 in0.0 mm 0.02 in0.5 mm
02:10 AM 60.1°F15.6°C 57.7°F14.3°C 92% 0.1 mph WNW0.2 kmh WNW 1.0 mph1.6 kmh 30.02 in1016.6 mb 0.00 in0.0 mm 0.00 in0.0 mm 0.02 in0.5 mm
02:20 AM 60.1°F15.6°C 57.7°F14.3°C 92% Calm Calm -- 30.02 in1016.6 mb 0.00 in0.0 mm 0.00 in0.0 mm 0.03 in0.8 mm
04:00 AM 59.4°F15.2°C 57.3°F14.1°C 93% Calm Calm -- 30.03 in1016.9 mb 0.00 in0.0 mm 0.00 in0.0 mm 0.05 in1.3 mm
04:10 AM 59.5°F15.3°C 57.5°F14.2°C 93% Calm Calm -- 30.03 in1016.9 mb 0.00 in0.0 mm 0.00 in0.0 mm 0.05 in1.3 mm
04:20 AM 59.5°F15.3°C 57.5°F14.2°C 93% Calm Calm -- 30.03 in1016.9 mb 0.00 in0.0 mm 0.00 in0.0 mm 0.05 in1.3 mm
06:00 AM 59.0°F15.0°C 57.3°F14.1°C 94% Calm Calm -- 30.03 in1016.9 mb 0.00 in0.0 mm 0.00 in0.0 mm 0.07 in1.8 mm
06:10 AM 59.0°F15.0°C 57.3°F14.1°C 94% Calm Calm -- 30.04 in1017.3 mb 0.00 in0.0 mm 0.00 in0.0 mm 0.08 in2.0 mm
06:20 AM 58.8°F14.9°C 57.1°F13.9°C 94% Calm Calm -- 30.04 in1017.3 mb 0.00 in0.0 mm 0.00 in0.0 mm 0.09 in2.3 mm
08:00 AM 57.0°F13.9°C 54.7°F12.6°C 92% 0.1 mph N0.2 kmh N 1.0 mph1.6 kmh 30.08 in1018.6 mb 0.00 in0.0 mm 0.00 in0.0 mm 0.17 in4.3 mm
08:10 AM 57.4°F14.1°C 55.4°F13.0°C 93% Calm Calm -- 30.08 in1018.6 mb 0.00 in0.0 mm 0.00 in0.0 mm 0.17 in4.3 mm
08:20 AM 57.4°F14.1°C 55.1°F12.8°C 92% 0.1 mph N0.2 kmh N 1.0 mph1.6 kmh 30.09 in1019.0 mb 0.00 in0.0 mm 0.00 in0.0 mm 0.17 in4.3 mm
10:00 AM 57.7°F14.3°C 55.4°F13.0°C 92% 1.1 mph N1.8 kmh N 3.0 mph4.8 kmh 30.11 in1019.6 mb 0.00 in0.0 mm 0.00 in0.0 mm 0.17 in4.3 mm
10:10 AM 57.7°F14.3°C 55.4°F13.0°C 92% Calm Calm -- 30.11 in1019.6 mb 0.00 in0.0 mm 0.00 in0.0 mm 0.17 in4.3 mm
10:20 AM 57.7°F14.3°C 55.4°F13.0°C 92% Calm Calm -- 30.11 in1019.6 mb 0.00 in0.0 mm 0.00 in0.0 mm 0.17 in4.3 mm
12:00 PM 58.8°F14.9°C 56.2°F13.4°C 91% Calm Calm -- 30.12 in1020.0 mb 0.00 in0.0 mm 0.00 in0.0 mm 0.17 in4.3 mm
12:10 PM 58.8°F14.9°C 56.2°F13.4°C 91% Calm Calm -- 30.12 in1020.0 mb 0.00 in0.0 mm 0.00 in0.0 mm 0.17 in4.3 mm
12:20 PM 58.6°F14.8°C 56.0°F13.3°C 91% Calm Calm -- 30.12 in1020.0 mb 0.00 in0.0 mm 0.00 in0.0 mm 0.17 in4.3 mm
02:00 PM 57.7°F14.3°C 54.8°F12.7°C 90% Calm Calm -- 30.15 in1021.0 mb 0.00 in0.0 mm 0.00 in0.0 mm 0.19 in4.8 mm
02:10 PM 57.7°F14.3°C 54.8°F12.7°C 90% Calm Calm -- 30.15 in1021.0 mb 0.00 in0.0 mm 0.00 in0.0 mm 0.19 in4.8 mm
02:20 PM 57.9°F14.4°C 54.7°F12.6°C 89% Calm Calm -- 30.15 in1021.0 mb 0.00 in0.0 mm 0.00 in0.0 mm 0.19 in4.8 mm
04:00 PM 57.6°F14.2°C 53.1°F11.7°C 85% 1.1 mph WSW1.8 kmh WSW 3.0 mph4.8 kmh 30.16 in1021.3 mb 0.00 in0.0 mm 0.00 in0.0 mm 0.19 in4.8 mm
04:10 PM 57.6°F14.2°C 53.1°F11.7°C 85% 0.2 mph N0.3 kmh N 2.0 mph3.2 kmh 30.16 in1021.3 mb 0.00 in0.0 mm 0.00 in0.0 mm 0.19 in4.8 mm
04:20 PM 57.6°F14.2°C 53.4°F11.9°C 86% Calm Calm -- 30.16 in1021.3 mb 0.00 in0.0 mm 0.00 in0.0 mm 0.19 in4.8 mm
06:00 PM 56.1°F13.4°C 52.3°F11.3°C 87% Calm Calm -- 30.18 in1022.0 mb 0.00 in0.0 mm 0.00 in0.0 mm 0.20 in5.1 mm
06:10 PM 55.9°F13.3°C 51.8°F11.0°C 86% 0.4 mph WSW0.6 kmh WSW 2.0 mph3.2 kmh 30.18 in1022.0 mb 0.00 in0.0 mm 0.00 in0.0 mm 0.20 in5.1 mm
06:20 PM 55.8°F13.2°C 51.9°F11.1°C 87% Calm Calm -- 30.18 in1022.0 mb 0.00 in0.0 mm 0.00 in0.0 mm 0.20 in5.1 mm
08:00 PM 54.7°F12.6°C 51.2°F10.7°C 88% Calm Calm -- 30.22 in1023.4 mb 0.00 in0.0 mm 0.00 in0.0 mm 0.21 in5.3 mm
08:10 PM 54.5°F12.5°C 51.3°F10.7°C 89% 0.6 mph WSW1.0 kmh WSW 3.0 mph4.8 kmh 30.22 in1023.4 mb 0.00 in0.0 mm 0.00 in0.0 mm 0.21 in5.3 mm
08:20 PM 54.5°F12.5°C 51.3°F10.7°C 89% Calm Calm -- 30.23 in1023.7 mb 0.00 in0.0 mm 0.00 in0.0 mm 0.21 in5.3 mm
10:00 PM 54.1°F12.3°C 51.3°F10.7°C 90% Calm Calm -- 30.24 in1024.0 mb 0.00 in0.0 mm 0.00 in0.0 mm 0.21 in5.3 mm
10:10 PM 54.1°F12.3°C 51.3°F10.7°C 90% Calm Calm -- 30.24 in1024.0 mb 0.00 in0.0 mm 0.00 in0.0 mm 0.21 in5.3 mm
10:20 PM 54.1°F12.3°C 51.3°F10.7°C 90% Calm Calm -- 30.25 in1024.4 mb 0.00 in0.0 mm 0.00 in0.0 mm 0.21 in5.3 mm